createdAt,value
2022-08-03T00:01:49.818Z,20.81
2022-08-03T00:07:20.838Z,20.76
2022-08-03T00:12:51.696Z,20.70
2022-08-03T00:18:22.828Z,20.64
2022-08-03T00:23:54.047Z,20.59
2022-08-03T00:29:25.144Z,20.54
2022-08-03T00:34:58.504Z,20.55
2022-08-03T00:40:30.116Z,20.53
2022-08-03T00:46:01.165Z,20.50
2022-08-03T00:51:34.218Z,20.47
2022-08-03T00:57:05.107Z,20.43
2022-08-03T01:02:36.364Z,20.41
2022-08-03T01:08:42.718Z,20.36
2022-08-03T01:14:20.049Z,20.35
2022-08-03T01:20:08.535Z,20.32
2022-08-03T01:25:48.011Z,20.29
2022-08-03T01:32:54.504Z,20.26
2022-08-03T01:37:39.123Z,20.21
2022-08-03T01:44:27.698Z,20.16
2022-08-03T01:49:11.525Z,20.14
2022-08-03T01:54:44.870Z,20.10
2022-08-03T02:00:17.104Z,20.08
2022-08-03T02:06:11.542Z,20.06
2022-08-03T02:11:43.992Z,20.04
2022-08-03T02:17:15.115Z,19.98
2022-08-03T02:22:46.903Z,19.94
2022-08-03T02:28:20.378Z,19.94
2022-08-03T02:33:53.798Z,19.88
2022-08-03T02:39:25.396Z,19.82
2022-08-03T02:44:58.063Z,19.77
2022-08-03T02:50:28.915Z,19.74
2022-08-03T02:55:59.971Z,19.73
2022-08-03T03:01:31.781Z,19.70
2022-08-03T03:07:04.372Z,19.67
2022-08-03T03:12:37.560Z,19.63
2022-08-03T03:18:10.300Z,19.60
2022-08-03T03:23:41.373Z,19.56
2022-08-03T03:29:12.609Z,19.55
2022-08-03T03:34:44.242Z,19.53
2022-08-03T03:40:15.867Z,19.50
2022-08-03T03:45:47.937Z,19.47
2022-08-03T03:51:18.859Z,19.44
2022-08-03T03:56:49.866Z,19.39
2022-08-03T04:02:21.402Z,19.39
2022-08-03T04:08:23.247Z,19.38
2022-08-03T04:14:05.495Z,19.36
2022-08-03T04:19:45.549Z,19.37
2022-08-03T04:25:19.599Z,19.33
2022-08-03T04:30:53.673Z,19.34
2022-08-03T04:36:27.560Z,19.39
2022-08-03T04:42:08.590Z,19.41
2022-08-03T04:47:40.377Z,19.42
2022-08-03T04:53:11.365Z,19.42
2022-08-03T04:58:42.227Z,19.42
2022-08-03T05:04:13.683Z,19.44
2022-08-03T05:09:50.443Z,19.46
2022-08-03T05:15:28.820Z,19.46
2022-08-03T05:20:59.747Z,19.48
2022-08-03T05:26:30.751Z,19.50
2022-08-03T05:32:07.765Z,19.50
2022-08-03T05:37:39.431Z,19.52
2022-08-03T05:43:25.507Z,19.59
2022-08-03T05:48:56.395Z,19.69
2022-08-03T05:54:55.619Z,19.84
2022-08-03T06:00:18.965Z,20.05
2022-08-03T06:05:57.380Z,20.26
2022-08-03T06:11:31.664Z,20.51
2022-08-03T06:17:02.799Z,20.79
2022-08-03T06:22:33.850Z,21.04
2022-08-03T06:28:05.564Z,21.29
2022-08-03T06:34:30.074Z,21.51
2022-08-03T06:39:27.869Z,21.74
2022-08-03T06:44:58.713Z,21.98
2022-08-03T06:50:29.752Z,22.20
2022-08-03T06:56:00.939Z,22.42
2022-08-03T07:01:31.931Z,22.62
2022-08-03T07:07:03.179Z,22.84
2022-08-03T07:12:35.303Z,23.04
2022-08-03T07:18:07.104Z,23.25
2022-08-03T07:23:38.897Z,23.43
2022-08-03T07:29:14.900Z,23.62
2022-08-03T07:34:46.224Z,23.82
2022-08-03T07:40:17.903Z,23.99
2022-08-03T07:45:50.405Z,24.17
2022-08-03T07:51:21.629Z,24.33
2022-08-03T07:56:52.429Z,24.49
2022-08-03T08:02:23.348Z,24.62
2022-08-03T08:07:54.623Z,24.76
2022-08-03T08:13:25.961Z,24.89
2022-08-03T08:18:57.013Z,25.03
2022-08-03T08:24:30.660Z,25.21
2022-08-03T08:30:11.494Z,25.39
2022-08-03T08:35:43.685Z,25.56
2022-08-03T08:41:15.345Z,25.74
2022-08-03T08:46:46.752Z,25.90
2022-08-03T08:52:24.894Z,26.04
2022-08-03T08:58:05.845Z,26.24
2022-08-03T09:03:36.816Z,26.46
2022-08-03T09:09:08.454Z,26.62
2022-08-03T09:14:54.794Z,26.76
2022-08-03T09:20:34.063Z,26.92
2022-08-03T09:26:05.057Z,27.08
2022-08-03T09:31:37.106Z,27.22
2022-08-03T09:37:16.759Z,27.36
2022-08-03T09:42:57.793Z,27.52
2022-08-03T09:48:31.372Z,27.62
2022-08-03T09:54:05.559Z,27.78
2022-08-03T09:59:41.275Z,27.91
2022-08-03T10:05:17.577Z,28.00
2022-08-03T10:10:55.365Z,28.14
2022-08-03T10:16:26.532Z,28.28
2022-08-03T10:22:03.487Z,28.22
2022-08-03T10:27:42.504Z,27.92
2022-08-03T10:33:49.744Z,27.94
2022-08-03T10:39:16.363Z,27.86
2022-08-03T10:44:50.603Z,28.08
2022-08-03T10:50:24.009Z,28.23
2022-08-03T10:56:13.699Z,28.37
2022-08-03T11:01:58.275Z,28.22
2022-08-03T11:07:30.776Z,28.11
2022-08-03T11:13:08.175Z,27.95
2022-08-03T11:18:56.442Z,28.09
2022-08-03T11:24:36.510Z,28.20
2022-08-03T11:30:19.607Z,28.41
2022-08-03T11:36:02.106Z,28.60
2022-08-03T11:41:45.236Z,28.60
2022-08-03T11:47:18.545Z,28.77
2022-08-03T11:52:50.664Z,28.87
2022-08-03T11:58:58.272Z,28.76
2022-08-03T12:04:14.123Z,28.48
2022-08-03T12:10:12.350Z,28.50
2022-08-03T12:15:45.374Z,28.67
2022-08-03T12:21:18.688Z,28.82
2022-08-03T12:26:58.392Z,28.93
2022-08-03T12:32:31.156Z,29.12
2022-08-03T12:38:03.463Z,29.26
2022-08-03T12:43:39.382Z,29.18
2022-08-03T12:49:15.603Z,28.93
2022-08-03T12:55:00.684Z,28.64
2022-08-03T13:00:32.832Z,28.56
2022-08-03T13:06:31.293Z,28.67
2022-08-03T13:12:10.682Z,28.66
2022-08-03T13:17:41.636Z,28.61
2022-08-03T13:23:12.943Z,28.66
2022-08-03T13:28:53.271Z,28.67
2022-08-03T13:34:24.224Z,28.70
2022-08-03T13:39:59.285Z,28.69
2022-08-03T13:45:32.316Z,28.63
2022-08-03T13:51:11.719Z,28.65
2022-08-03T13:56:55.772Z,28.71
2022-08-03T14:02:28.951Z,28.74
2022-08-03T14:08:05.938Z,28.75
2022-08-03T14:13:37.876Z,28.71
2022-08-03T14:19:08.781Z,28.68
2022-08-03T14:24:40.080Z,28.64
2022-08-03T14:30:11.900Z,28.61
2022-08-03T14:35:43.108Z,28.61
2022-08-03T14:41:20.088Z,28.57
2022-08-03T14:46:51.296Z,28.53
2022-08-03T14:52:22.408Z,28.51
2022-08-03T14:57:53.437Z,28.47
2022-08-03T15:03:25.337Z,28.39
2022-08-03T15:09:21.525Z,28.35
2022-08-03T15:14:47.499Z,28.29
2022-08-03T15:20:28.872Z,28.26
2022-08-03T15:26:30.688Z,28.23
2022-08-03T15:31:57.453Z,28.21
2022-08-03T15:37:28.805Z,28.17
2022-08-03T15:43:01.751Z,28.14
2022-08-03T15:48:32.997Z,28.11
2022-08-03T15:54:04.612Z,28.08
2022-08-03T15:59:35.831Z,28.04
2022-08-03T16:05:07.339Z,27.99
2022-08-03T16:10:38.231Z,27.96
2022-08-03T16:16:09.587Z,27.92
2022-08-03T16:21:48.030Z,27.86
2022-08-03T16:27:37.686Z,27.81
2022-08-03T16:33:16.534Z,27.77
2022-08-03T16:38:49.195Z,27.71
2022-08-03T16:44:20.913Z,27.67
2022-08-03T16:49:53.090Z,27.59
2022-08-03T16:55:48.854Z,27.54
2022-08-03T17:01:21.791Z,27.48
2022-08-03T17:06:55.764Z,27.42
2022-08-03T17:12:27.525Z,27.34
2022-08-03T17:18:08.673Z,27.26
2022-08-03T17:23:44.596Z,27.21
2022-08-03T17:29:19.729Z,27.13
2022-08-03T17:34:54.751Z,27.07
2022-08-03T17:40:26.188Z,26.99
2022-08-03T17:45:59.319Z,26.92
2022-08-03T17:58:01.361Z,26.75
2022-08-03T18:03:44.881Z,26.67
2022-08-03T18:10:05.847Z,26.57
2022-08-03T18:15:33.060Z,26.47
2022-08-03T18:27:03.162Z,26.26
2022-08-03T18:32:35.110Z,26.16
2022-08-03T18:38:10.218Z,26.09
2022-08-03T18:44:06.938Z,26.01
2022-08-03T18:49:50.922Z,25.89
2022-08-03T18:55:32.906Z,25.82
2022-08-03T19:01:59.830Z,25.72
2022-08-03T19:07:35.904Z,25.62
2022-08-03T19:13:11.663Z,25.56
2022-08-03T19:18:49.518Z,25.48
2022-08-03T19:24:25.984Z,25.42
2022-08-03T19:30:03.711Z,25.34
2022-08-03T19:35:52.177Z,25.28
2022-08-03T19:41:41.855Z,25.21
2022-08-03T19:47:30.020Z,25.16
2022-08-03T19:53:07.247Z,25.09
2022-08-03T19:58:43.402Z,25.01
2022-08-03T20:04:14.932Z,24.94
2022-08-03T20:09:46.390Z,24.88
2022-08-03T20:15:31.847Z,24.80
2022-08-03T20:21:06.067Z,24.73
2022-08-03T20:26:49.305Z,24.68
2022-08-03T20:32:24.925Z,24.61
2022-08-03T20:37:56.177Z,24.54
2022-08-03T20:43:30.297Z,24.49
2022-08-03T20:49:03.922Z,24.43
2022-08-03T20:54:36.543Z,24.38
2022-08-03T21:00:12.300Z,24.32
2022-08-03T21:05:51.148Z,24.27
2022-08-03T21:11:25.235Z,24.20
2022-08-03T21:12:55.449Z,26.84
2022-08-03T21:12:57.780Z,26.37
2022-08-03T21:16:56.305Z,24.16
2022-08-03T21:22:31.138Z,24.08
2022-08-03T21:28:02.226Z,24.01
2022-08-03T21:33:34.090Z,23.96
2022-08-03T21:39:08.444Z,23.90
2022-08-03T21:44:39.661Z,23.84
2022-08-03T21:50:12.930Z,23.78
2022-08-03T21:55:58.162Z,23.71
2022-08-03T22:01:31.330Z,23.66
2022-08-03T22:07:08.607Z,23.59
2022-08-03T22:12:40.319Z,23.53
2022-08-03T22:18:11.749Z,23.44
2022-08-03T22:23:49.865Z,23.37
2022-08-03T22:29:20.870Z,23.34
2022-08-03T22:34:52.158Z,23.29
2022-08-03T22:40:23.414Z,23.23
2022-08-03T22:46:09.616Z,23.19
2022-08-03T22:51:43.549Z,23.12
2022-08-03T22:57:14.674Z,23.04
2022-08-03T23:02:47.683Z,22.99
2022-08-03T23:08:23.929Z,22.92
2022-08-03T23:13:57.056Z,22.85
2022-08-03T23:19:28.120Z,22.82
2022-08-03T23:25:06.357Z,22.77
2022-08-03T23:30:37.856Z,22.76
2022-08-03T23:36:30.768Z,22.71
2022-08-03T23:42:01.220Z,22.65
2022-08-03T23:47:46.264Z,22.60
2022-08-03T23:53:22.909Z,22.56
2022-08-03T23:58:57.034Z,22.51
